sensor_id;sensor_type;location;lat;lon;timestamp;P1;durP1;ratioP1;P2;durP2;ratioP2
76433;SDS011;65265;53.200;6.080;2023-08-17T00:02:18;4.47;;;1.58;;
76433;SDS011;65265;53.200;6.080;2023-08-17T00:07:09;1.52;;;1.08;;
76433;SDS011;65265;53.200;6.080;2023-08-17T00:12:03;1.70;;;0.75;;
76433;SDS011;65265;53.200;6.080;2023-08-17T00:16:55;3.53;;;1.40;;
76433;SDS011;65265;53.200;6.080;2023-08-17T00:21:46;2.67;;;1.15;;
76433;SDS011;65265;53.200;6.080;2023-08-17T00:26:38;1.23;;;0.50;;
76433;SDS011;65265;53.200;6.080;2023-08-17T00:31:31;1.90;;;0.88;;
76433;SDS011;65265;53.200;6.080;2023-08-17T00:36:23;3.22;;;1.20;;
76433;SDS011;65265;53.200;6.080;2023-08-17T00:41:15;3.05;;;0.73;;
76433;SDS011;65265;53.200;6.080;2023-08-17T00:46:06;4.22;;;1.63;;
76433;SDS011;65265;53.200;6.080;2023-08-17T00:51:00;4.72;;;1.05;;
76433;SDS011;65265;53.200;6.080;2023-08-17T00:55:53;3.95;;;1.27;;
76433;SDS011;65265;53.200;6.080;2023-08-17T01:00:44;2.85;;;1.40;;
76433;SDS011;65265;53.200;6.080;2023-08-17T01:05:36;3.17;;;1.50;;
76433;SDS011;65265;53.200;6.080;2023-08-17T01:10:31;2.72;;;1.13;;
76433;SDS011;65265;53.200;6.080;2023-08-17T01:15:31;2.38;;;1.08;;
76433;SDS011;65265;53.200;6.080;2023-08-17T01:20:26;3.80;;;2.13;;
76433;SDS011;65265;53.200;6.080;2023-08-17T01:25:20;1.40;;;0.70;;
76433;SDS011;65265;53.200;6.080;2023-08-17T01:30:13;2.85;;;0.85;;
76433;SDS011;65265;53.200;6.080;2023-08-17T01:35:08;2.40;;;1.13;;
76433;SDS011;65265;53.200;6.080;2023-08-17T01:40:07;4.88;;;2.30;;
76433;SDS011;65265;53.200;6.080;2023-08-17T01:45:02;2.90;;;1.85;;
76433;SDS011;65265;53.200;6.080;2023-08-17T01:49:54;6.30;;;2.60;;
76433;SDS011;65265;53.200;6.080;2023-08-17T01:54:49;8.88;;;2.50;;
76433;SDS011;65265;53.200;6.080;2023-08-17T01:59:41;5.25;;;3.30;;
76433;SDS011;65265;53.200;6.080;2023-08-17T02:04:34;6.32;;;2.38;;
76433;SDS011;65265;53.200;6.080;2023-08-17T02:09:26;4.28;;;1.70;;
76433;SDS011;65265;53.200;6.080;2023-08-17T02:14:17;9.70;;;2.40;;
76433;SDS011;65265;53.200;6.080;2023-08-17T02:19:09;6.00;;;1.95;;
76433;SDS011;65265;53.200;6.080;2023-08-17T02:24:02;4.65;;;1.63;;
76433;SDS011;65265;53.200;6.080;2023-08-17T02:28:54;5.00;;;1.67;;
76433;SDS011;65265;53.200;6.080;2023-08-17T02:33:46;5.18;;;1.77;;
76433;SDS011;65265;53.200;6.080;2023-08-17T02:38:37;5.88;;;1.42;;
76433;SDS011;65265;53.200;6.080;2023-08-17T02:43:31;5.70;;;1.70;;
76433;SDS011;65265;53.200;6.080;2023-08-17T02:48:23;7.78;;;1.80;;
76433;SDS011;65265;53.200;6.080;2023-08-17T02:53:14;4.22;;;1.60;;
76433;SDS011;65265;53.200;6.080;2023-08-17T02:58:06;3.40;;;1.52;;
76433;SDS011;65265;53.200;6.080;2023-08-17T03:02:59;6.07;;;1.58;;
76433;SDS011;65265;53.200;6.080;2023-08-17T03:07:50;7.32;;;2.63;;
76433;SDS011;65265;53.200;6.080;2023-08-17T03:12:42;6.35;;;2.00;;
76433;SDS011;65265;53.200;6.080;2023-08-17T03:17:34;6.78;;;1.80;;
76433;SDS011;65265;53.200;6.080;2023-08-17T03:22:26;7.35;;;2.33;;
76433;SDS011;65265;53.200;6.080;2023-08-17T03:27:18;6.25;;;3.60;;
76433;SDS011;65265;53.200;6.080;2023-08-17T03:32:09;6.25;;;2.28;;
76433;SDS011;65265;53.200;6.080;2023-08-17T03:37:03;6.68;;;2.15;;
76433;SDS011;65265;53.200;6.080;2023-08-17T03:41:59;4.95;;;1.98;;
76433;SDS011;65265;53.200;6.080;2023-08-17T03:46:50;4.65;;;2.05;;
76433;SDS011;65265;53.200;6.080;2023-08-17T03:51:42;3.85;;;1.38;;
76433;SDS011;65265;53.200;6.080;2023-08-17T03:56:33;5.13;;;1.33;;
76433;SDS011;65265;53.200;6.080;2023-08-17T04:01:26;2.60;;;0.80;;
76433;SDS011;65265;53.200;6.080;2023-08-17T04:06:18;2.70;;;1.70;;
76433;SDS011;65265;53.200;6.080;2023-08-17T04:11:09;1.10;;;0.40;;
76433;SDS011;65265;53.200;6.080;2023-08-17T04:16:01;4.10;;;1.08;;
76433;SDS011;65265;53.200;6.080;2023-08-17T04:20:54;2.10;;;0.60;;
76433;SDS011;65265;53.200;6.080;2023-08-17T04:25:46;3.22;;;0.77;;
76433;SDS011;65265;53.200;6.080;2023-08-17T04:30:38;7.15;;;1.75;;
76433;SDS011;65265;53.200;6.080;2023-08-17T04:35:30;3.55;;;1.45;;
76433;SDS011;65265;53.200;6.080;2023-08-17T04:40:23;4.78;;;1.35;;
76433;SDS011;65265;53.200;6.080;2023-08-17T04:45:14;4.55;;;1.60;;
76433;SDS011;65265;53.200;6.080;2023-08-17T04:50:06;3.47;;;1.15;;
76433;SDS011;65265;53.200;6.080;2023-08-17T04:54:58;3.13;;;1.48;;
76433;SDS011;65265;53.200;6.080;2023-08-17T04:59:51;3.72;;;2.38;;
76433;SDS011;65265;53.200;6.080;2023-08-17T05:04:43;2.30;;;0.95;;
76433;SDS011;65265;53.200;6.080;2023-08-17T05:09:37;3.58;;;0.77;;
76433;SDS011;65265;53.200;6.080;2023-08-17T05:14:28;3.58;;;0.93;;
76433;SDS011;65265;53.200;6.080;2023-08-17T05:19:21;3.70;;;0.73;;
76433;SDS011;65265;53.200;6.080;2023-08-17T05:24:13;1.50;;;0.65;;
76433;SDS011;65265;53.200;6.080;2023-08-17T05:29:04;2.78;;;1.65;;
76433;SDS011;65265;53.200;6.080;2023-08-17T05:33:56;3.17;;;0.85;;
76433;SDS011;65265;53.200;6.080;2023-08-17T05:38:49;4.55;;;0.60;;
76433;SDS011;65265;53.200;6.080;2023-08-17T05:43:41;2.25;;;0.60;;
76433;SDS011;65265;53.200;6.080;2023-08-17T05:48:32;3.03;;;0.50;;
76433;SDS011;65265;53.200;6.080;2023-08-17T05:53:24;6.22;;;1.35;;
76433;SDS011;65265;53.200;6.080;2023-08-17T05:58:17;4.10;;;0.70;;
76433;SDS011;65265;53.200;6.080;2023-08-17T06:03:08;2.67;;;0.82;;
76433;SDS011;65265;53.200;6.080;2023-08-17T06:08:00;5.43;;;1.20;;
76433;SDS011;65265;53.200;6.080;2023-08-17T06:12:52;1.40;;;0.70;;
76433;SDS011;65265;53.200;6.080;2023-08-17T06:17:45;2.10;;;0.60;;
76433;SDS011;65265;53.200;6.080;2023-08-17T06:22:39;4.70;;;0.77;;
76433;SDS011;65265;53.200;6.080;2023-08-17T06:27:31;2.35;;;0.60;;
76433;SDS011;65265;53.200;6.080;2023-08-17T06:37:17;2.92;;;1.48;;
76433;SDS011;65265;53.200;6.080;2023-08-17T06:42:08;2.22;;;0.50;;
76433;SDS011;65265;53.200;6.080;2023-08-17T06:47:00;3.63;;;1.15;;
76433;SDS011;65265;53.200;6.080;2023-08-17T06:51:51;5.05;;;0.90;;
76433;SDS011;65265;53.200;6.080;2023-08-17T06:56:44;2.67;;;0.43;;
76433;SDS011;65265;53.200;6.080;2023-08-17T07:01:36;4.90;;;0.50;;
76433;SDS011;65265;53.200;6.080;2023-08-17T07:06:28;6.55;;;0.60;;
76433;SDS011;65265;53.200;6.080;2023-08-17T07:11:20;2.00;;;0.55;;
76433;SDS011;65265;53.200;6.080;2023-08-17T07:16:13;4.22;;;0.20;;
76433;SDS011;65265;53.200;6.080;2023-08-17T07:21:05;2.67;;;0.52;;
76433;SDS011;65265;53.200;6.080;2023-08-17T07:25:57;3.65;;;0.50;;
76433;SDS011;65265;53.200;6.080;2023-08-17T07:30:49;2.70;;;0.50;;
76433;SDS011;65265;53.200;6.080;2023-08-17T07:35:42;3.45;;;1.05;;
76433;SDS011;65265;53.200;6.080;2023-08-17T07:40:33;4.30;;;0.50;;
76433;SDS011;65265;53.200;6.080;2023-08-17T07:45:25;4.63;;;0.95;;
76433;SDS011;65265;53.200;6.080;2023-08-17T07:50:17;2.35;;;0.43;;
76433;SDS011;65265;53.200;6.080;2023-08-17T07:55:11;2.53;;;0.40;;
76433;SDS011;65265;53.200;6.080;2023-08-17T08:00:03;1.23;;;0.30;;
76433;SDS011;65265;53.200;6.080;2023-08-17T08:04:56;3.50;;;0.47;;
76433;SDS011;65265;53.200;6.080;2023-08-17T08:09:47;1.60;;;0.30;;
76433;SDS011;65265;53.200;6.080;2023-08-17T08:14:42;2.75;;;1.10;;
76433;SDS011;65265;53.200;6.080;2023-08-17T08:19:34;1.60;;;0.32;;
76433;SDS011;65265;53.200;6.080;2023-08-17T08:24:26;1.40;;;0.20;;
76433;SDS011;65265;53.200;6.080;2023-08-17T08:29:21;2.35;;;1.10;;
76433;SDS011;65265;53.200;6.080;2023-08-17T08:34:14;2.40;;;0.20;;
76433;SDS011;65265;53.200;6.080;2023-08-17T08:39:05;1.75;;;0.68;;
76433;SDS011;65265;53.200;6.080;2023-08-17T08:43:57;1.10;;;0.38;;
76433;SDS011;65265;53.200;6.080;2023-08-17T08:48:50;1.40;;;1.00;;
76433;SDS011;65265;53.200;6.080;2023-08-17T08:53:45;3.55;;;0.30;;
76433;SDS011;65265;53.200;6.080;2023-08-17T08:58:37;4.68;;;1.48;;
76433;SDS011;65265;53.200;6.080;2023-08-17T09:03:31;2.05;;;0.40;;
76433;SDS011;65265;53.200;6.080;2023-08-17T09:08:25;5.03;;;0.30;;
76433;SDS011;65265;53.200;6.080;2023-08-17T09:13:20;3.03;;;0.20;;
76433;SDS011;65265;53.200;6.080;2023-08-17T09:18:12;2.55;;;0.95;;
76433;SDS011;65265;53.200;6.080;2023-08-17T09:23:04;4.15;;;0.40;;
76433;SDS011;65265;53.200;6.080;2023-08-17T09:32:50;2.58;;;0.73;;
76433;SDS011;65265;53.200;6.080;2023-08-17T09:37:42;2.47;;;0.35;;
76433;SDS011;65265;53.200;6.080;2023-08-17T09:42:34;4.95;;;0.35;;
76433;SDS011;65265;53.200;6.080;2023-08-17T09:52:20;4.28;;;0.63;;
76433;SDS011;65265;53.200;6.080;2023-08-17T09:57:12;2.78;;;0.30;;
76433;SDS011;65265;53.200;6.080;2023-08-17T10:02:03;5.35;;;1.30;;
76433;SDS011;65265;53.200;6.080;2023-08-17T10:07:07;3.03;;;0.75;;
76433;SDS011;65265;53.200;6.080;2023-08-17T10:12:06;3.63;;;0.50;;
76433;SDS011;65265;53.200;6.080;2023-08-17T10:17:04;1.42;;;0.32;;
76433;SDS011;65265;53.200;6.080;2023-08-17T10:22:03;3.85;;;0.45;;
76433;SDS011;65265;53.200;6.080;2023-08-17T10:27:04;4.80;;;0.32;;
76433;SDS011;65265;53.200;6.080;2023-08-17T10:31:57;2.80;;;0.30;;
76433;SDS011;65265;53.200;6.080;2023-08-17T10:36:50;3.40;;;0.68;;
76433;SDS011;65265;53.200;6.080;2023-08-17T10:41:45;3.35;;;0.40;;
76433;SDS011;65265;53.200;6.080;2023-08-17T10:46:39;1.13;;;0.35;;
76433;SDS011;65265;53.200;6.080;2023-08-17T10:51:33;3.00;;;0.30;;
76433;SDS011;65265;53.200;6.080;2023-08-17T10:56:26;4.50;;;0.77;;
76433;SDS011;65265;53.200;6.080;2023-08-17T11:01:30;2.88;;;0.13;;
76433;SDS011;65265;53.200;6.080;2023-08-17T11:06:24;4.47;;;1.15;;
76433;SDS011;65265;53.200;6.080;2023-08-17T11:11:16;5.22;;;1.77;;
76433;SDS011;65265;53.200;6.080;2023-08-17T11:16:11;6.45;;;1.00;;
76433;SDS011;65265;53.200;6.080;2023-08-17T11:21:04;2.15;;;0.10;;
76433;SDS011;65265;53.200;6.080;2023-08-17T11:25:59;2.33;;;0.50;;
76433;SDS011;65265;53.200;6.080;2023-08-17T11:30:56;3.25;;;0.60;;
76433;SDS011;65265;53.200;6.080;2023-08-17T11:35:48;3.13;;;1.10;;
76433;SDS011;65265;53.200;6.080;2023-08-17T11:40:40;1.77;;;0.22;;
76433;SDS011;65265;53.200;6.080;2023-08-17T11:45:34;6.25;;;0.70;;
76433;SDS011;65265;53.200;6.080;2023-08-17T11:50:25;2.95;;;0.35;;
76433;SDS011;65265;53.200;6.080;2023-08-17T11:55:17;4.13;;;0.70;;
76433;SDS011;65265;53.200;6.080;2023-08-17T12:00:10;1.17;;;0.30;;
76433;SDS011;65265;53.200;6.080;2023-08-17T12:05:10;3.63;;;0.15;;
76433;SDS011;65265;53.200;6.080;2023-08-17T12:10:02;5.20;;;0.47;;
76433;SDS011;65265;53.200;6.080;2023-08-17T12:14:54;4.70;;;0.50;;
76433;SDS011;65265;53.200;6.080;2023-08-17T12:19:48;3.47;;;0.65;;
76433;SDS011;65265;53.200;6.080;2023-08-17T12:24:42;3.95;;;0.60;;
76433;SDS011;65265;53.200;6.080;2023-08-17T12:29:33;6.28;;;0.85;;
76433;SDS011;65265;53.200;6.080;2023-08-17T12:34:25;10.13;;;0.98;;
76433;SDS011;65265;53.200;6.080;2023-08-17T12:39:17;3.67;;;0.93;;
76433;SDS011;65265;53.200;6.080;2023-08-17T12:44:10;4.63;;;1.10;;
76433;SDS011;65265;53.200;6.080;2023-08-17T12:49:03;4.03;;;1.20;;
76433;SDS011;65265;53.200;6.080;2023-08-17T12:53:55;5.85;;;0.65;;
76433;SDS011;65265;53.200;6.080;2023-08-17T12:58:46;4.38;;;0.73;;
76433;SDS011;65265;53.200;6.080;2023-08-17T13:03:39;3.53;;;0.50;;
76433;SDS011;65265;53.200;6.080;2023-08-17T13:08:31;3.08;;;0.73;;
76433;SDS011;65265;53.200;6.080;2023-08-17T13:13:22;5.88;;;0.95;;
76433;SDS011;65265;53.200;6.080;2023-08-17T13:18:14;6.00;;;1.58;;
76433;SDS011;65265;53.200;6.080;2023-08-17T13:23:07;3.70;;;1.15;;
76433;SDS011;65265;53.200;6.080;2023-08-17T13:27:58;4.53;;;1.05;;
76433;SDS011;65265;53.200;6.080;2023-08-17T13:32:50;3.10;;;1.60;;
76433;SDS011;65265;53.200;6.080;2023-08-17T13:37:42;3.85;;;1.15;;
76433;SDS011;65265;53.200;6.080;2023-08-17T13:42:35;4.32;;;0.68;;
76433;SDS011;65265;53.200;6.080;2023-08-17T13:47:27;1.92;;;0.77;;
76433;SDS011;65265;53.200;6.080;2023-08-17T13:52:18;4.50;;;1.20;;
76433;SDS011;65265;53.200;6.080;2023-08-17T14:02:03;3.63;;;0.95;;
76433;SDS011;65265;53.200;6.080;2023-08-17T14:06:55;3.50;;;0.85;;
76433;SDS011;65265;53.200;6.080;2023-08-17T14:11:47;5.88;;;0.98;;
76433;SDS011;65265;53.200;6.080;2023-08-17T14:16:38;2.53;;;0.88;;
76433;SDS011;65265;53.200;6.080;2023-08-17T14:21:31;3.45;;;1.17;;
76433;SDS011;65265;53.200;6.080;2023-08-17T14:26:23;4.20;;;2.25;;
76433;SDS011;65265;53.200;6.080;2023-08-17T14:31:14;4.05;;;0.65;;
76433;SDS011;65265;53.200;6.080;2023-08-17T14:36:08;3.38;;;0.50;;
76433;SDS011;65265;53.200;6.080;2023-08-17T14:41:01;5.95;;;1.08;;
76433;SDS011;65265;53.200;6.080;2023-08-17T14:45:54;5.15;;;1.55;;
76433;SDS011;65265;53.200;6.080;2023-08-17T14:50:45;5.03;;;3.03;;
76433;SDS011;65265;53.200;6.080;2023-08-17T14:55:37;5.78;;;1.42;;
76433;SDS011;65265;53.200;6.080;2023-08-17T15:00:30;7.28;;;1.38;;
76433;SDS011;65265;53.200;6.080;2023-08-17T15:05:22;4.40;;;1.33;;
76433;SDS011;65265;53.200;6.080;2023-08-17T15:10:14;5.68;;;1.33;;
76433;SDS011;65265;53.200;6.080;2023-08-17T15:15:06;4.93;;;1.17;;
76433;SDS011;65265;53.200;6.080;2023-08-17T15:20:00;6.05;;;1.10;;
76433;SDS011;65265;53.200;6.080;2023-08-17T15:29:45;6.45;;;1.83;;
76433;SDS011;65265;53.200;6.080;2023-08-17T15:34:36;4.57;;;2.45;;
76433;SDS011;65265;53.200;6.080;2023-08-17T15:39:30;7.25;;;1.80;;
76433;SDS011;65265;53.200;6.080;2023-08-17T15:44:21;9.20;;;2.25;;
76433;SDS011;65265;53.200;6.080;2023-08-17T15:49:13;6.78;;;2.28;;
76433;SDS011;65265;53.200;6.080;2023-08-17T15:54:05;5.78;;;2.38;;
76433;SDS011;65265;53.200;6.080;2023-08-17T15:58:58;6.82;;;1.75;;
76433;SDS011;65265;53.200;6.080;2023-08-17T16:03:50;5.07;;;1.50;;
76433;SDS011;65265;53.200;6.080;2023-08-17T16:08:41;6.40;;;1.83;;
76433;SDS011;65265;53.200;6.080;2023-08-17T16:13:33;4.18;;;1.60;;
76433;SDS011;65265;53.200;6.080;2023-08-17T16:18:26;7.72;;;1.83;;
76433;SDS011;65265;53.200;6.080;2023-08-17T16:23:17;5.68;;;1.70;;
76433;SDS011;65265;53.200;6.080;2023-08-17T16:33:01;3.65;;;2.17;;
76433;SDS011;65265;53.200;6.080;2023-08-17T16:37:54;5.20;;;2.05;;
76433;SDS011;65265;53.200;6.080;2023-08-17T16:42:46;7.32;;;3.90;;
76433;SDS011;65265;53.200;6.080;2023-08-17T16:47:37;5.45;;;3.28;;
76433;SDS011;65265;53.200;6.080;2023-08-17T16:52:29;4.45;;;2.85;;
76433;SDS011;65265;53.200;6.080;2023-08-17T16:57:22;4.72;;;2.42;;
76433;SDS011;65265;53.200;6.080;2023-08-17T17:02:13;8.25;;;2.58;;
76433;SDS011;65265;53.200;6.080;2023-08-17T17:07:05;6.95;;;3.28;;
76433;SDS011;65265;53.200;6.080;2023-08-17T17:11:56;7.32;;;3.33;;
76433;SDS011;65265;53.200;6.080;2023-08-17T17:16:50;5.57;;;3.08;;
76433;SDS011;65265;53.200;6.080;2023-08-17T17:21:41;6.10;;;3.72;;
76433;SDS011;65265;53.200;6.080;2023-08-17T17:26:33;3.08;;;2.15;;
76433;SDS011;65265;53.200;6.080;2023-08-17T17:31:26;6.50;;;3.45;;
76433;SDS011;65265;53.200;6.080;2023-08-17T17:36:19;10.32;;;3.72;;
76433;SDS011;65265;53.200;6.080;2023-08-17T17:41:11;5.88;;;2.88;;
76433;SDS011;65265;53.200;6.080;2023-08-17T17:46:03;7.05;;;3.97;;
76433;SDS011;65265;53.200;6.080;2023-08-17T17:50:55;5.70;;;4.32;;
76433;SDS011;65265;53.200;6.080;2023-08-17T17:55:48;7.15;;;3.28;;
76433;SDS011;65265;53.200;6.080;2023-08-17T18:00:40;6.75;;;4.03;;
76433;SDS011;65265;53.200;6.080;2023-08-17T18:05:32;5.43;;;3.70;;
76433;SDS011;65265;53.200;6.080;2023-08-17T18:10:23;9.98;;;5.40;;
76433;SDS011;65265;53.200;6.080;2023-08-17T18:15:16;8.60;;;4.93;;
76433;SDS011;65265;53.200;6.080;2023-08-17T18:20:08;6.90;;;5.68;;
76433;SDS011;65265;53.200;6.080;2023-08-17T18:25:00;6.47;;;4.70;;
76433;SDS011;65265;53.200;6.080;2023-08-17T18:29:52;6.50;;;4.05;;
76433;SDS011;65265;53.200;6.080;2023-08-17T18:34:45;8.90;;;5.28;;
76433;SDS011;65265;53.200;6.080;2023-08-17T18:39:37;7.90;;;4.25;;
76433;SDS011;65265;53.200;6.080;2023-08-17T18:44:28;7.70;;;4.28;;
76433;SDS011;65265;53.200;6.080;2023-08-17T18:49:20;7.32;;;4.75;;
76433;SDS011;65265;53.200;6.080;2023-08-17T18:54:13;7.82;;;4.78;;
76433;SDS011;65265;53.200;6.080;2023-08-17T18:59:04;9.93;;;5.97;;
76433;SDS011;65265;53.200;6.080;2023-08-17T19:03:56;7.05;;;4.10;;
76433;SDS011;65265;53.200;6.080;2023-08-17T19:08:49;8.43;;;5.53;;
76433;SDS011;65265;53.200;6.080;2023-08-17T19:13:42;8.52;;;4.63;;
76433;SDS011;65265;53.200;6.080;2023-08-17T19:18:33;7.70;;;5.45;;
76433;SDS011;65265;53.200;6.080;2023-08-17T19:23:25;7.20;;;4.47;;
76433;SDS011;65265;53.200;6.080;2023-08-17T19:28:17;9.38;;;5.05;;
76433;SDS011;65265;53.200;6.080;2023-08-17T19:33:10;6.55;;;4.47;;
76433;SDS011;65265;53.200;6.080;2023-08-17T19:38:02;7.00;;;4.68;;
76433;SDS011;65265;53.200;6.080;2023-08-17T19:42:54;7.47;;;5.43;;
76433;SDS011;65265;53.200;6.080;2023-08-17T19:47:46;8.60;;;5.80;;
76433;SDS011;65265;53.200;6.080;2023-08-17T19:52:38;9.48;;;6.10;;
76433;SDS011;65265;53.200;6.080;2023-08-17T19:57:30;8.27;;;6.03;;
76433;SDS011;65265;53.200;6.080;2023-08-17T20:02:22;7.82;;;5.55;;
76433;SDS011;65265;53.200;6.080;2023-08-17T20:07:14;9.63;;;6.30;;
76433;SDS011;65265;53.200;6.080;2023-08-17T20:12:07;7.50;;;5.57;;
76433;SDS011;65265;53.200;6.080;2023-08-17T20:16:59;9.23;;;4.78;;
76433;SDS011;65265;53.200;6.080;2023-08-17T20:21:50;6.18;;;4.28;;
76433;SDS011;65265;53.200;6.080;2023-08-17T20:26:42;5.93;;;3.85;;
76433;SDS011;65265;53.200;6.080;2023-08-17T20:31:37;5.93;;;4.22;;
76433;SDS011;65265;53.200;6.080;2023-08-17T20:36:29;9.10;;;3.35;;
76433;SDS011;65265;53.200;6.080;2023-08-17T20:41:21;6.93;;;4.40;;
76433;SDS011;65265;53.200;6.080;2023-08-17T20:46:12;6.93;;;5.03;;
76433;SDS011;65265;53.200;6.080;2023-08-17T20:51:06;6.07;;;4.00;;
76433;SDS011;65265;53.200;6.080;2023-08-17T20:55:58;5.43;;;4.72;;
76433;SDS011;65265;53.200;6.080;2023-08-17T21:00:50;4.60;;;3.35;;
76433;SDS011;65265;53.200;6.080;2023-08-17T21:05:41;5.35;;;3.58;;
76433;SDS011;65265;53.200;6.080;2023-08-17T21:10:35;5.07;;;2.75;;
76433;SDS011;65265;53.200;6.080;2023-08-17T21:15:26;7.82;;;4.13;;
76433;SDS011;65265;53.200;6.080;2023-08-17T21:30:42;5.07;;;2.38;;
76433;SDS011;65265;53.200;6.080;2023-08-17T21:35:53;5.53;;;3.67;;
76433;SDS011;65265;53.200;6.080;2023-08-17T21:40:44;5.70;;;3.78;;
76433;SDS011;65265;53.200;6.080;2023-08-17T21:45:37;5.35;;;3.85;;
76433;SDS011;65265;53.200;6.080;2023-08-17T21:50:29;7.03;;;4.45;;
76433;SDS011;65265;53.200;6.080;2023-08-17T21:55:20;4.60;;;3.45;;
76433;SDS011;65265;53.200;6.080;2023-08-17T22:00:12;6.75;;;4.13;;
76433;SDS011;65265;53.200;6.080;2023-08-17T22:05:06;7.95;;;4.65;;
76433;SDS011;65265;53.200;6.080;2023-08-17T22:09:58;6.32;;;5.28;;
76433;SDS011;65265;53.200;6.080;2023-08-17T22:14:49;7.93;;;4.68;;
76433;SDS011;65265;53.200;6.080;2023-08-17T22:19:41;6.95;;;4.35;;
76433;SDS011;65265;53.200;6.080;2023-08-17T22:24:34;5.40;;;3.55;;
76433;SDS011;65265;53.200;6.080;2023-08-17T22:29:29;6.90;;;3.75;;
76433;SDS011;65265;53.200;6.080;2023-08-17T22:34:21;5.15;;;3.97;;
76433;SDS011;65265;53.200;6.080;2023-08-17T22:39:13;5.07;;;3.58;;
76433;SDS011;65265;53.200;6.080;2023-08-17T22:44:06;4.95;;;3.45;;
76433;SDS011;65265;53.200;6.080;2023-08-17T22:48:58;4.20;;;2.90;;
76433;SDS011;65265;53.200;6.080;2023-08-17T22:53:49;6.00;;;3.67;;
76433;SDS011;65265;53.200;6.080;2023-08-17T22:58:41;4.35;;;3.10;;
76433;SDS011;65265;53.200;6.080;2023-08-17T23:03:35;3.30;;;2.55;;
76433;SDS011;65265;53.200;6.080;2023-08-17T23:08:27;3.72;;;2.72;;
76433;SDS011;65265;53.200;6.080;2023-08-17T23:13:19;4.45;;;3.90;;
76433;SDS011;65265;53.200;6.080;2023-08-17T23:18:10;5.25;;;2.88;;
76433;SDS011;65265;53.200;6.080;2023-08-17T23:23:04;5.93;;;3.40;;
76433;SDS011;65265;53.200;6.080;2023-08-17T23:27:55;4.95;;;3.17;;
76433;SDS011;65265;53.200;6.080;2023-08-17T23:32:47;6.20;;;3.75;;
76433;SDS011;65265;53.200;6.080;2023-08-17T23:37:41;5.68;;;3.70;;
76433;SDS011;65265;53.200;6.080;2023-08-17T23:42:34;4.15;;;2.47;;
76433;SDS011;65265;53.200;6.080;2023-08-17T23:47:26;5.57;;;3.03;;
76433;SDS011;65265;53.200;6.080;2023-08-17T23:52:18;3.63;;;2.13;;
76433;SDS011;65265;53.200;6.080;2023-08-17T23:57:09;4.63;;;3.08;;
